createdAt,value
2022-09-13T00:00:46.481Z,9.30
2022-09-13T00:03:32.442Z,8.95
2022-09-13T00:06:22.110Z,8.60
2022-09-13T00:09:08.358Z,8.67
2022-09-13T00:11:54.103Z,8.80
2022-09-13T00:14:42.513Z,8.40
2022-09-13T00:17:27.978Z,10.02
2022-09-13T00:20:14.274Z,8.13
2022-09-13T00:23:00.267Z,8.70
2022-09-13T00:25:46.566Z,8.87
2022-09-13T00:28:32.967Z,8.98
2022-09-13T00:31:20.115Z,10.75
2022-09-13T00:34:06.843Z,7.82
2022-09-13T00:36:53.082Z,9.70
2022-09-13T00:39:39.286Z,8.43
2022-09-13T00:42:27.372Z,8.20
2022-09-13T00:45:20.027Z,9.00
2022-09-13T00:48:09.081Z,8.77
2022-09-13T00:50:56.875Z,8.40
2022-09-13T00:53:49.177Z,8.57
2022-09-13T00:56:40.508Z,7.35
2022-09-13T00:59:33.497Z,8.73
2022-09-13T01:02:21.181Z,7.10
2022-09-13T01:05:08.887Z,8.13
2022-09-13T01:07:56.238Z,7.65
2022-09-13T01:10:44.043Z,8.38
2022-09-13T01:13:33.216Z,10.85
2022-09-13T01:16:19.220Z,6.82
2022-09-13T01:19:05.090Z,7.20
2022-09-13T01:22:12.539Z,8.57
2022-09-13T01:25:20.101Z,8.65
2022-09-13T01:28:37.927Z,8.82
2022-09-13T01:31:40.439Z,8.93
2022-09-13T01:34:55.264Z,9.32
2022-09-13T01:37:57.138Z,8.25
2022-09-13T01:41:15.118Z,8.13
2022-09-13T01:44:36.638Z,6.97
2022-09-13T01:47:44.904Z,8.00
2022-09-13T01:50:34.124Z,7.60
2022-09-13T01:53:32.357Z,8.13
2022-09-13T01:56:36.433Z,7.10
2022-09-13T01:59:29.737Z,7.03
2022-09-13T02:02:54.105Z,6.90
2022-09-13T02:05:47.379Z,6.70
2022-09-13T02:08:46.888Z,9.45
2022-09-13T02:11:33.801Z,8.18
2022-09-13T02:14:25.028Z,8.48
2022-09-13T02:17:18.304Z,8.30
2022-09-13T02:20:11.891Z,6.85
2022-09-13T02:23:03.187Z,6.80
2022-09-13T02:25:50.994Z,7.55
2022-09-13T02:28:41.675Z,6.95
2022-09-13T02:31:37.171Z,6.68
2022-09-13T02:34:29.920Z,7.30
2022-09-13T02:37:15.628Z,6.93
2022-09-13T02:40:09.197Z,6.50
2022-09-13T02:43:02.126Z,6.57
2022-09-13T02:46:14.892Z,7.10
2022-09-13T02:49:18.141Z,8.82
2022-09-13T02:52:17.546Z,9.90
2022-09-13T02:55:25.922Z,6.15
2022-09-13T02:58:24.859Z,6.25
2022-09-13T03:01:13.520Z,6.88
2022-09-13T03:04:00.118Z,6.57
2022-09-13T03:06:45.842Z,7.07
2022-09-13T03:09:32.978Z,6.28
2022-09-13T03:12:31.300Z,7.90
2022-09-13T03:15:48.671Z,7.15
2022-09-13T03:18:45.777Z,7.10
2022-09-13T03:22:11.700Z,7.05
2022-09-13T03:25:26.614Z,6.95
2022-09-13T03:28:34.428Z,9.27
2022-09-13T03:31:43.432Z,8.15
2022-09-13T03:34:52.864Z,6.82
2022-09-13T03:37:54.931Z,8.98
2022-09-13T03:40:44.482Z,7.03
2022-09-13T03:43:36.869Z,7.53
2022-09-13T03:46:36.854Z,7.65
2022-09-13T03:49:24.934Z,8.77
2022-09-13T03:52:12.262Z,9.50
2022-09-13T03:54:59.378Z,9.18
2022-09-13T03:57:45.158Z,9.23
2022-09-13T04:00:30.790Z,9.43
2022-09-13T04:03:16.834Z,9.17
2022-09-13T04:06:03.036Z,11.48
2022-09-13T04:08:49.100Z,8.83
2022-09-13T04:11:35.172Z,9.60
2022-09-13T04:14:20.951Z,8.90
2022-09-13T04:17:07.625Z,9.13
2022-09-13T04:19:53.503Z,8.88
2022-09-13T04:22:39.490Z,9.50
2022-09-13T04:25:25.851Z,9.05
2022-09-13T04:28:11.991Z,8.95
2022-09-13T04:30:58.095Z,8.73
2022-09-13T04:33:44.841Z,10.00
2022-09-13T04:36:32.100Z,9.17
2022-09-13T04:39:18.617Z,9.30
2022-09-13T04:42:05.019Z,8.88
2022-09-13T04:44:51.258Z,9.02
2022-09-13T04:47:37.020Z,9.40
2022-09-13T04:50:24.629Z,9.95
2022-09-13T04:53:11.131Z,9.25
2022-09-13T04:56:05.155Z,9.13
2022-09-13T04:58:51.977Z,8.98
2022-09-13T05:01:39.033Z,9.00
2022-09-13T05:04:24.906Z,12.75
2022-09-13T05:07:11.022Z,8.68
2022-09-13T05:09:57.168Z,8.50
2022-09-13T05:12:43.411Z,9.25
2022-09-13T05:15:29.469Z,10.25
2022-09-13T05:18:16.441Z,9.52
2022-09-13T05:21:04.511Z,9.00
2022-09-13T05:23:54.384Z,11.18
2022-09-13T05:26:40.456Z,11.07
2022-09-13T05:29:26.210Z,9.55
2022-09-13T05:32:12.104Z,8.93
2022-09-13T05:34:57.991Z,12.10
2022-09-13T05:37:44.660Z,10.48
2022-09-13T05:40:30.065Z,11.88
2022-09-13T05:43:16.392Z,11.00
2022-09-13T05:46:07.864Z,10.35
2022-09-13T05:48:57.712Z,9.30
2022-09-13T05:51:43.192Z,9.00
2022-09-13T05:54:29.300Z,10.65
2022-09-13T05:57:40.966Z,13.07
2022-09-13T06:00:27.048Z,12.43
2022-09-13T06:03:14.224Z,9.23
2022-09-13T06:06:00.116Z,9.45
2022-09-13T06:08:46.953Z,9.82
2022-09-13T06:11:33.513Z,12.23
2022-09-13T06:14:19.142Z,9.30
2022-09-13T06:17:04.773Z,13.37
2022-09-13T06:19:51.329Z,10.95
2022-09-13T06:22:37.587Z,11.98
2022-09-13T06:25:24.352Z,10.35
2022-09-13T06:28:11.098Z,12.60
2022-09-13T06:31:16.818Z,11.38
2022-09-13T06:34:03.410Z,12.27
2022-09-13T06:36:50.634Z,11.00
2022-09-13T06:39:36.930Z,9.63
2022-09-13T06:42:22.716Z,9.90
2022-09-13T06:45:10.544Z,10.38
2022-09-13T06:47:59.857Z,9.95
2022-09-13T06:50:46.059Z,9.73
2022-09-13T06:53:34.149Z,10.30
2022-09-13T06:56:31.008Z,12.43
2022-09-13T06:59:16.626Z,12.52
2022-09-13T07:02:03.054Z,14.63
2022-09-13T07:04:49.070Z,12.90
2022-09-13T07:07:35.048Z,12.13
2022-09-13T07:10:20.958Z,11.63
2022-09-13T07:13:07.229Z,13.00
2022-09-13T07:15:53.029Z,11.88
2022-09-13T07:18:39.137Z,10.60
2022-09-13T07:21:25.634Z,11.25
2022-09-13T07:24:12.308Z,11.82
2022-09-13T07:26:58.196Z,8.73
2022-09-13T07:29:44.330Z,9.93
2022-09-13T07:32:32.927Z,12.70
2022-09-13T07:35:19.806Z,10.57
2022-09-13T07:38:05.643Z,8.57
2022-09-13T07:40:59.450Z,8.52
2022-09-13T07:43:46.287Z,5.97
2022-09-13T07:46:33.795Z,7.07
2022-09-13T07:49:20.608Z,7.05
2022-09-13T07:52:06.929Z,6.80
2022-09-13T07:54:52.795Z,6.20
2022-09-13T07:57:38.634Z,7.10
2022-09-13T08:00:25.233Z,7.68
2022-09-13T08:03:12.104Z,7.90
2022-09-13T08:05:58.238Z,9.63
2022-09-13T08:08:45.060Z,8.77
2022-09-13T08:11:45.993Z,5.95
2022-09-13T08:14:32.238Z,5.27
2022-09-13T08:17:18.280Z,6.90
2022-09-13T08:20:06.231Z,8.02
2022-09-13T08:22:52.969Z,5.00
2022-09-13T08:25:40.412Z,5.03
2022-09-13T08:28:27.774Z,8.00
2022-09-13T08:31:19.985Z,4.45
2022-09-13T08:34:11.941Z,7.13
2022-09-13T08:36:58.182Z,5.53
2022-09-13T08:39:44.504Z,5.60
2022-09-13T08:42:39.689Z,6.32
2022-09-13T08:45:25.881Z,8.20
2022-09-13T08:48:16.382Z,5.18
2022-09-13T08:51:08.007Z,8.32
2022-09-13T08:53:54.308Z,6.78
2022-09-13T08:57:15.865Z,5.00
2022-09-13T09:00:20.908Z,6.07
2022-09-13T09:03:22.419Z,6.35
2022-09-13T09:06:14.769Z,5.32
2022-09-13T09:09:04.706Z,8.98
2022-09-13T09:11:59.663Z,5.32
2022-09-13T09:14:53.316Z,6.38
2022-09-13T09:18:12.774Z,5.32
2022-09-13T09:21:01.809Z,7.80
2022-09-13T09:23:54.310Z,7.45
2022-09-13T09:26:40.854Z,8.38
2022-09-13T09:29:29.639Z,5.68
2022-09-13T09:32:18.743Z,5.13
2022-09-13T09:35:04.969Z,4.20
2022-09-13T09:38:27.323Z,5.53
2022-09-13T09:41:16.228Z,4.22
2022-09-13T09:44:22.073Z,10.90
2022-09-13T09:47:16.317Z,6.53
2022-09-13T09:50:11.178Z,5.53
2022-09-13T09:53:07.858Z,6.53
2022-09-13T09:56:02.755Z,3.58
2022-09-13T09:58:49.484Z,3.80
2022-09-13T10:01:38.395Z,4.00
2022-09-13T10:04:25.963Z,3.63
2022-09-13T10:07:29.619Z,6.22
2022-09-13T10:10:24.982Z,2.78
2022-09-13T10:13:18.824Z,4.68
2022-09-13T10:16:07.890Z,5.85
2022-09-13T10:18:55.719Z,4.72
2022-09-13T10:21:42.198Z,4.35
2022-09-13T10:24:29.566Z,4.00
2022-09-13T10:27:27.845Z,4.17
2022-09-13T10:30:52.986Z,3.53
2022-09-13T10:33:42.762Z,2.40
2022-09-13T10:36:51.816Z,2.90
2022-09-13T10:39:52.510Z,3.75
2022-09-13T10:42:39.888Z,5.43
2022-09-13T10:45:31.666Z,4.80
2022-09-13T10:48:20.412Z,3.15
2022-09-13T10:51:07.323Z,2.90
2022-09-13T10:54:15.381Z,2.53
2022-09-13T10:57:01.736Z,2.42
2022-09-13T10:59:57.156Z,3.30
2022-09-13T11:03:14.485Z,6.30
2022-09-13T11:06:27.542Z,3.90
2022-09-13T11:09:28.535Z,2.58
2022-09-13T11:12:31.536Z,4.43
2022-09-13T11:15:39.995Z,3.33
2022-09-13T11:18:32.898Z,2.17
2022-09-13T11:21:25.445Z,3.38
2022-09-13T11:24:33.420Z,3.10
2022-09-13T11:27:52.934Z,3.38
2022-09-13T11:31:07.118Z,2.35
2022-09-13T11:34:08.591Z,2.75
2022-09-13T11:37:22.485Z,2.70
2022-09-13T11:40:46.690Z,2.40
2022-09-13T11:43:56.320Z,1.65
2022-09-13T11:46:52.098Z,2.47
2022-09-13T11:50:01.122Z,5.10
2022-09-13T11:53:02.093Z,3.17
2022-09-13T11:55:54.046Z,1.92
2022-09-13T11:58:42.866Z,2.72
2022-09-13T12:01:39.277Z,1.77
2022-09-13T12:04:37.359Z,4.10
2022-09-13T12:07:44.858Z,2.43
2022-09-13T12:10:43.394Z,3.53
2022-09-13T12:14:00.944Z,1.65
2022-09-13T12:16:58.244Z,2.47
2022-09-13T12:19:49.801Z,1.67
2022-09-13T12:22:39.323Z,2.30
2022-09-13T12:25:39.855Z,1.38
2022-09-13T12:28:33.778Z,2.47
2022-09-13T12:31:24.880Z,2.17
2022-09-13T12:34:28.761Z,1.95
2022-09-13T12:37:20.371Z,3.00
2022-09-13T12:40:28.451Z,2.15
2022-09-13T12:43:21.396Z,1.77
2022-09-13T12:46:29.350Z,2.30
2022-09-13T12:49:17.752Z,2.83
2022-09-13T12:52:27.090Z,1.67
2022-09-13T12:55:46.564Z,1.40
2022-09-13T12:58:39.174Z,2.60
2022-09-13T13:01:28.175Z,1.45
2022-09-13T13:04:21.282Z,2.35
2022-09-13T13:07:19.906Z,3.08
2022-09-13T13:10:06.572Z,1.67
2022-09-13T13:12:53.285Z,1.90
2022-09-13T13:15:39.314Z,3.10
2022-09-13T13:18:28.287Z,1.48
2022-09-13T13:21:31.356Z,1.58
2022-09-13T13:24:17.074Z,2.10
2022-09-13T13:27:34.017Z,2.53
2022-09-13T13:30:43.585Z,4.07
2022-09-13T13:33:31.973Z,2.80
2022-09-13T13:36:28.900Z,1.40
2022-09-13T13:39:27.144Z,3.60
2022-09-13T13:42:15.753Z,3.67
2022-09-13T13:45:01.572Z,2.70
2022-09-13T13:48:07.603Z,3.00
2022-09-13T13:51:14.033Z,3.45
2022-09-13T13:54:05.782Z,2.83
2022-09-13T13:56:51.828Z,6.32
2022-09-13T13:59:39.213Z,2.92
2022-09-13T14:02:41.736Z,2.80
2022-09-13T14:05:43.442Z,3.80
2022-09-13T14:08:36.468Z,2.13
2022-09-13T14:11:54.639Z,2.00
2022-09-13T14:14:52.741Z,5.88
2022-09-13T14:18:12.496Z,3.33
2022-09-13T14:21:00.267Z,3.85
2022-09-13T14:23:45.811Z,2.70
2022-09-13T14:26:31.199Z,4.50
2022-09-13T14:29:22.903Z,2.58
2022-09-13T14:32:16.810Z,2.22
2022-09-13T14:35:06.172Z,3.85
2022-09-13T14:37:52.435Z,1.77
2022-09-13T14:40:38.721Z,4.22
2022-09-13T14:43:29.246Z,2.87
2022-09-13T14:46:17.912Z,2.92
2022-09-13T14:49:10.033Z,2.80
2022-09-13T14:51:59.821Z,1.77
2022-09-13T14:54:51.158Z,3.90
2022-09-13T14:57:42.604Z,3.90
2022-09-13T15:00:29.012Z,1.98
2022-09-13T15:03:17.024Z,2.22
2022-09-13T15:06:05.339Z,2.88
2022-09-13T15:08:52.488Z,3.55
2022-09-13T15:12:02.909Z,2.30
2022-09-13T15:14:49.053Z,2.58
2022-09-13T15:17:58.849Z,3.53
2022-09-13T15:20:47.761Z,3.17
2022-09-13T15:23:35.855Z,1.98
2022-09-13T15:26:25.561Z,2.20
2022-09-13T15:29:19.334Z,5.57
2022-09-13T15:32:06.620Z,1.50
2022-09-13T15:34:52.874Z,2.00
2022-09-13T15:37:39.727Z,2.70
2022-09-13T15:40:26.488Z,4.57
2022-09-13T15:43:12.327Z,2.10
2022-09-13T15:45:59.597Z,1.55
2022-09-13T15:48:55.264Z,4.97
2022-09-13T15:51:44.070Z,1.02
2022-09-13T15:54:35.165Z,3.47
2022-09-13T15:57:24.303Z,2.30
2022-09-13T16:00:18.941Z,3.67
2022-09-13T16:03:04.567Z,3.13
2022-09-13T16:05:50.937Z,3.22
2022-09-13T16:08:38.324Z,1.97
2022-09-13T16:11:24.843Z,5.45
2022-09-13T16:14:10.823Z,3.10
2022-09-13T16:16:57.248Z,3.10
2022-09-13T16:19:43.177Z,1.55
2022-09-13T16:22:29.311Z,1.40
2022-09-13T16:25:16.458Z,4.03
2022-09-13T16:28:02.876Z,4.38
2022-09-13T16:30:49.514Z,1.45
2022-09-13T16:33:37.229Z,2.37
2022-09-13T16:36:23.802Z,2.60
2022-09-13T16:39:09.910Z,3.78
2022-09-13T16:41:56.036Z,2.67
2022-09-13T16:44:42.711Z,2.77
2022-09-13T16:47:28.378Z,1.70
2022-09-13T16:50:15.136Z,3.15
2022-09-13T16:53:00.801Z,4.07
2022-09-13T16:55:46.907Z,2.60
2022-09-13T16:58:32.730Z,6.00
2022-09-13T17:01:21.646Z,2.17
2022-09-13T17:04:08.192Z,3.45
2022-09-13T17:06:56.787Z,2.63
2022-09-13T17:09:42.413Z,3.60
2022-09-13T17:12:28.217Z,3.65
2022-09-13T17:15:14.411Z,4.25
2022-09-13T17:18:00.193Z,2.50
2022-09-13T17:20:48.070Z,2.42
2022-09-13T17:23:34.271Z,3.08
2022-09-13T17:26:20.214Z,3.65
2022-09-13T17:29:06.421Z,1.80
2022-09-13T17:31:53.151Z,5.37
2022-09-13T17:34:38.905Z,3.97
2022-09-13T17:37:25.278Z,4.75
2022-09-13T17:40:11.987Z,5.25
2022-09-13T17:42:58.702Z,4.88
2022-09-13T17:45:44.839Z,4.65
2022-09-13T17:48:30.590Z,4.68
2022-09-13T17:51:18.986Z,4.88
2022-09-13T17:54:07.529Z,4.53
2022-09-13T17:56:53.987Z,2.72
2022-09-13T17:59:40.272Z,4.37
2022-09-13T18:02:28.180Z,5.15
2022-09-13T18:05:14.259Z,5.90
2022-09-13T18:08:00.500Z,3.25
2022-09-13T18:11:10.166Z,3.30
2022-09-13T18:13:52.253Z,3.53
2022-09-13T18:16:37.992Z,7.90
2022-09-13T18:19:44.234Z,5.38
2022-09-13T18:22:31.071Z,4.28
2022-09-13T18:25:17.109Z,8.13
2022-09-13T18:28:03.301Z,6.75
2022-09-13T18:30:54.298Z,6.73
2022-09-13T18:33:40.300Z,6.13
2022-09-13T18:36:27.813Z,4.10
2022-09-13T18:39:17.721Z,3.05
2022-09-13T18:42:05.026Z,7.55
2022-09-13T18:44:52.149Z,3.05
2022-09-13T18:47:38.884Z,2.88
2022-09-13T18:50:24.698Z,3.22
2022-09-13T18:53:10.761Z,3.90
2022-09-13T18:56:00.819Z,4.90
2022-09-13T18:58:48.113Z,2.42
2022-09-13T19:01:40.639Z,2.58
2022-09-13T19:04:26.678Z,4.03
2022-09-13T19:07:12.933Z,3.60
2022-09-13T19:09:59.161Z,3.40
2022-09-13T19:12:45.010Z,2.00
2022-09-13T19:15:32.311Z,3.05
2022-09-13T19:18:18.434Z,4.80
2022-09-13T19:21:06.333Z,3.00
2022-09-13T19:24:01.020Z,2.30
2022-09-13T19:26:51.698Z,3.72
2022-09-13T19:29:38.673Z,3.00
2022-09-13T19:32:24.479Z,2.28
2022-09-13T19:35:10.418Z,2.78
2022-09-13T19:37:56.549Z,3.60
2022-09-13T19:40:42.449Z,1.95
2022-09-13T19:43:33.282Z,4.57
2022-09-13T19:46:30.469Z,3.47
2022-09-13T19:49:19.061Z,1.98
2022-09-13T19:52:06.243Z,2.00
2022-09-13T19:54:52.614Z,2.95
2022-09-13T19:57:41.908Z,4.32
2022-09-13T20:00:32.233Z,1.70
2022-09-13T20:03:18.367Z,4.97
2022-09-13T20:06:07.996Z,3.10
2022-09-13T20:08:58.547Z,3.92
2022-09-13T20:11:45.819Z,2.80
2022-09-13T20:14:32.792Z,3.37
2022-09-13T20:17:18.793Z,3.22
2022-09-13T20:20:05.180Z,2.67
2022-09-13T20:22:51.497Z,2.78
2022-09-13T20:25:39.355Z,0.98
2022-09-13T20:28:26.114Z,2.70
2022-09-13T20:31:12.973Z,3.30
2022-09-13T20:34:00.968Z,1.10
2022-09-13T20:36:47.288Z,2.63
2022-09-13T20:39:33.517Z,3.45
2022-09-13T20:42:20.350Z,5.85
2022-09-13T20:45:07.641Z,1.33
2022-09-13T20:47:53.734Z,3.55
2022-09-13T20:50:40.997Z,2.75
2022-09-13T20:53:28.276Z,1.25
2022-09-13T20:56:17.312Z,2.55
2022-09-13T20:59:04.266Z,1.23
2022-09-13T21:01:50.866Z,2.05
2022-09-13T21:04:37.320Z,1.88
2022-09-13T21:07:41.679Z,1.70
2022-09-13T21:10:27.736Z,1.73
2022-09-13T21:13:14.106Z,2.70
2022-09-13T21:16:08.530Z,2.88
2022-09-13T21:18:55.597Z,2.83
2022-09-13T21:21:42.659Z,3.33
2022-09-13T21:24:29.386Z,3.15
2022-09-13T21:27:15.580Z,5.60
2022-09-13T21:30:02.142Z,2.90
2022-09-13T21:32:48.287Z,1.52
2022-09-13T21:35:41.042Z,1.35
2022-09-13T21:38:29.085Z,2.33
2022-09-13T21:41:17.708Z,1.30
2022-09-13T21:44:03.749Z,1.70
2022-09-13T21:46:51.521Z,1.10
2022-09-13T21:49:37.839Z,2.17
2022-09-13T21:52:24.458Z,2.33
2022-09-13T21:55:10.250Z,2.00
2022-09-13T21:57:57.110Z,1.23
2022-09-13T22:00:43.729Z,2.73
2022-09-13T22:03:31.614Z,1.58
2022-09-13T22:06:19.642Z,1.65
2022-09-13T22:09:08.753Z,3.85
2022-09-13T22:11:55.981Z,2.72
2022-09-13T22:14:42.022Z,1.70
2022-09-13T22:17:28.484Z,1.20
2022-09-13T22:20:14.618Z,1.17
2022-09-13T22:23:00.359Z,0.88
2022-09-13T22:25:46.474Z,2.15
2022-09-13T22:28:32.687Z,1.50
2022-09-13T22:31:21.331Z,1.77
2022-09-13T22:34:08.938Z,1.60
2022-09-13T22:36:55.632Z,1.30
2022-09-13T22:39:41.734Z,1.67
2022-09-13T22:42:27.668Z,3.45
2022-09-13T22:45:14.456Z,1.88
2022-09-13T22:48:00.162Z,1.63
2022-09-13T22:50:55.876Z,2.85
2022-09-13T22:53:44.734Z,1.80
2022-09-13T22:56:32.838Z,1.97
2022-09-13T22:59:21.423Z,2.60
2022-09-13T23:02:08.144Z,3.90
2022-09-13T23:04:54.013Z,2.90
2022-09-13T23:07:39.990Z,1.80
2022-09-13T23:10:25.905Z,2.88
2022-09-13T23:13:11.846Z,2.00
2022-09-13T23:16:03.167Z,1.30
2022-09-13T23:18:49.942Z,1.30
2022-09-13T23:21:37.328Z,1.95
2022-09-13T23:24:24.308Z,1.50
2022-09-13T23:27:10.756Z,2.17
2022-09-13T23:29:56.657Z,2.90
2022-09-13T23:32:42.486Z,1.85
2022-09-13T23:35:29.862Z,1.35
2022-09-13T23:38:15.957Z,1.45
2022-09-13T23:41:01.996Z,2.35
2022-09-13T23:43:48.369Z,1.55
2022-09-13T23:46:34.806Z,1.23
2022-09-13T23:49:21.525Z,2.58
2022-09-13T23:52:07.395Z,2.33
2022-09-13T23:54:53.290Z,1.50
2022-09-13T23:57:40.787Z,1.17
